sensor_id;sensor_type;location;lat;lon;timestamp;P1;durP1;ratioP1;P2;durP2;ratioP2
60243;SDS011;46106;51.468;5.814;2023-11-19T00:00:28;20.73;;;13.60;;
60243;SDS011;46106;51.468;5.814;2023-11-19T00:02:54;24.27;;;13.85;;
60243;SDS011;46106;51.468;5.814;2023-11-19T00:05:21;28.23;;;14.98;;
60243;SDS011;46106;51.468;5.814;2023-11-19T00:07:46;21.42;;;13.48;;
60243;SDS011;46106;51.468;5.814;2023-11-19T00:10:13;21.20;;;12.57;;
60243;SDS011;46106;51.468;5.814;2023-11-19T00:12:41;18.35;;;12.63;;
60243;SDS011;46106;51.468;5.814;2023-11-19T00:15:09;22.40;;;13.02;;
60243;SDS011;46106;51.468;5.814;2023-11-19T00:17:39;21.00;;;12.02;;
60243;SDS011;46106;51.468;5.814;2023-11-19T00:20:09;23.65;;;12.75;;
60243;SDS011;46106;51.468;5.814;2023-11-19T00:22:39;21.08;;;12.65;;
60243;SDS011;46106;51.468;5.814;2023-11-19T00:25:06;22.38;;;12.00;;
60243;SDS011;46106;51.468;5.814;2023-11-19T00:27:34;23.83;;;11.95;;
60243;SDS011;46106;51.468;5.814;2023-11-19T00:30:00;15.93;;;9.82;;
60243;SDS011;46106;51.468;5.814;2023-11-19T00:32:26;16.25;;;9.68;;
60243;SDS011;46106;51.468;5.814;2023-11-19T00:34:51;17.77;;;9.73;;
60243;SDS011;46106;51.468;5.814;2023-11-19T00:37:16;15.60;;;8.55;;
60243;SDS011;46106;51.468;5.814;2023-11-19T00:39:42;11.48;;;7.85;;
60243;SDS011;46106;51.468;5.814;2023-11-19T00:42:11;16.45;;;6.63;;
60243;SDS011;46106;51.468;5.814;2023-11-19T00:44:36;13.63;;;6.28;;
60243;SDS011;46106;51.468;5.814;2023-11-19T00:47:02;11.70;;;5.95;;
60243;SDS011;46106;51.468;5.814;2023-11-19T00:49:27;9.88;;;6.45;;
60243;SDS011;46106;51.468;5.814;2023-11-19T00:51:54;11.05;;;5.18;;
60243;SDS011;46106;51.468;5.814;2023-11-19T00:54:20;13.23;;;5.50;;
60243;SDS011;46106;51.468;5.814;2023-11-19T00:56:45;15.38;;;5.40;;
60243;SDS011;46106;51.468;5.814;2023-11-19T00:59:11;12.55;;;5.78;;
60243;SDS011;46106;51.468;5.814;2023-11-19T01:01:37;6.95;;;5.32;;
60243;SDS011;46106;51.468;5.814;2023-11-19T01:04:02;8.40;;;5.38;;
60243;SDS011;46106;51.468;5.814;2023-11-19T01:06:28;13.40;;;5.53;;
60243;SDS011;46106;51.468;5.814;2023-11-19T01:08:55;7.10;;;4.57;;
60243;SDS011;46106;51.468;5.814;2023-11-19T01:11:22;9.48;;;3.97;;
60243;SDS011;46106;51.468;5.814;2023-11-19T01:13:48;9.07;;;3.55;;
60243;SDS011;46106;51.468;5.814;2023-11-19T01:16:15;15.63;;;3.97;;
60243;SDS011;46106;51.468;5.814;2023-11-19T01:18:40;9.27;;;3.30;;
60243;SDS011;46106;51.468;5.814;2023-11-19T01:21:06;10.90;;;3.35;;
60243;SDS011;46106;51.468;5.814;2023-11-19T01:23:33;11.40;;;3.92;;
60243;SDS011;46106;51.468;5.814;2023-11-19T01:26:00;9.43;;;4.00;;
60243;SDS011;46106;51.468;5.814;2023-11-19T01:28:25;15.75;;;3.47;;
60243;SDS011;46106;51.468;5.814;2023-11-19T01:30:51;18.50;;;3.53;;
60243;SDS011;46106;51.468;5.814;2023-11-19T01:33:16;15.30;;;3.60;;
60243;SDS011;46106;51.468;5.814;2023-11-19T01:35:42;18.75;;;3.88;;
60243;SDS011;46106;51.468;5.814;2023-11-19T01:38:07;12.18;;;3.22;;
60243;SDS011;46106;51.468;5.814;2023-11-19T01:40:36;16.75;;;2.90;;
60243;SDS011;46106;51.468;5.814;2023-11-19T01:43:02;17.67;;;3.33;;
60243;SDS011;46106;51.468;5.814;2023-11-19T01:45:29;17.60;;;3.50;;
60243;SDS011;46106;51.468;5.814;2023-11-19T01:47:59;14.80;;;3.05;;
60243;SDS011;46106;51.468;5.814;2023-11-19T01:50:31;14.48;;;2.78;;
60243;SDS011;46106;51.468;5.814;2023-11-19T01:52:58;14.85;;;2.65;;
60243;SDS011;46106;51.468;5.814;2023-11-19T01:55:24;30.00;;;3.10;;
60243;SDS011;46106;51.468;5.814;2023-11-19T01:57:50;28.05;;;3.67;;
60243;SDS011;46106;51.468;5.814;2023-11-19T02:00:18;16.17;;;2.80;;
60243;SDS011;46106;51.468;5.814;2023-11-19T02:02:45;18.83;;;4.97;;
60243;SDS011;46106;51.468;5.814;2023-11-19T02:05:12;27.00;;;3.67;;
60243;SDS011;46106;51.468;5.814;2023-11-19T02:07:38;22.33;;;3.33;;
60243;SDS011;46106;51.468;5.814;2023-11-19T02:10:04;20.25;;;3.33;;
60243;SDS011;46106;51.468;5.814;2023-11-19T02:12:31;28.42;;;3.65;;
60243;SDS011;46106;51.468;5.814;2023-11-19T02:15:01;22.38;;;3.63;;
60243;SDS011;46106;51.468;5.814;2023-11-19T02:17:31;31.58;;;3.58;;
60243;SDS011;46106;51.468;5.814;2023-11-19T02:19:57;28.17;;;3.53;;
60243;SDS011;46106;51.468;5.814;2023-11-19T02:22:23;21.90;;;4.00;;
60243;SDS011;46106;51.468;5.814;2023-11-19T02:24:49;21.80;;;4.65;;
60243;SDS011;46106;51.468;5.814;2023-11-19T02:30:21;10.25;;;2.47;;
60243;SDS011;46106;51.468;5.814;2023-11-19T02:32:51;20.10;;;2.97;;
60243;SDS011;46106;51.468;5.814;2023-11-19T02:35:22;13.90;;;3.35;;
60243;SDS011;46106;51.468;5.814;2023-11-19T02:37:58;21.55;;;3.80;;
60243;SDS011;46106;51.468;5.814;2023-11-19T02:40:25;19.80;;;3.30;;
60243;SDS011;46106;51.468;5.814;2023-11-19T02:42:51;28.08;;;4.53;;
60243;SDS011;46106;51.468;5.814;2023-11-19T02:45:19;27.10;;;4.47;;
60243;SDS011;46106;51.468;5.814;2023-11-19T02:47:47;22.95;;;3.58;;
60243;SDS011;46106;51.468;5.814;2023-11-19T02:50:12;20.23;;;3.17;;
60243;SDS011;46106;51.468;5.814;2023-11-19T02:52:41;15.38;;;2.92;;
60243;SDS011;46106;51.468;5.814;2023-11-19T02:55:07;35.35;;;4.28;;
60243;SDS011;46106;51.468;5.814;2023-11-19T02:57:41;25.13;;;3.55;;
60243;SDS011;46106;51.468;5.814;2023-11-19T03:00:27;34.08;;;5.30;;
60243;SDS011;46106;51.468;5.814;2023-11-19T03:03:00;24.30;;;3.65;;
60243;SDS011;46106;51.468;5.814;2023-11-19T03:05:35;30.70;;;4.45;;
60243;SDS011;46106;51.468;5.814;2023-11-19T03:08:05;26.25;;;5.18;;
60243;SDS011;46106;51.468;5.814;2023-11-19T03:10:32;31.30;;;3.97;;
60243;SDS011;46106;51.468;5.814;2023-11-19T03:12:59;38.85;;;4.43;;
60243;SDS011;46106;51.468;5.814;2023-11-19T03:15:27;30.58;;;3.42;;
60243;SDS011;46106;51.468;5.814;2023-11-19T03:17:52;35.42;;;4.72;;
60243;SDS011;46106;51.468;5.814;2023-11-19T03:20:18;36.75;;;4.05;;
60243;SDS011;46106;51.468;5.814;2023-11-19T03:22:43;25.58;;;3.22;;
60243;SDS011;46106;51.468;5.814;2023-11-19T03:25:09;40.90;;;3.95;;
60243;SDS011;46106;51.468;5.814;2023-11-19T03:27:35;31.13;;;2.83;;
60243;SDS011;46106;51.468;5.814;2023-11-19T03:30:02;35.75;;;3.35;;
60243;SDS011;46106;51.468;5.814;2023-11-19T03:32:29;39.13;;;3.65;;
60243;SDS011;46106;51.468;5.814;2023-11-19T03:34:56;38.00;;;3.97;;
60243;SDS011;46106;51.468;5.814;2023-11-19T03:37:21;30.08;;;3.35;;
60243;SDS011;46106;51.468;5.814;2023-11-19T03:39:47;48.15;;;4.82;;
60243;SDS011;46106;51.468;5.814;2023-11-19T03:42:12;39.65;;;3.72;;
60243;SDS011;46106;51.468;5.814;2023-11-19T03:44:38;40.88;;;3.72;;
60243;SDS011;46106;51.468;5.814;2023-11-19T03:47:04;43.83;;;6.00;;
60243;SDS011;46106;51.468;5.814;2023-11-19T03:49:29;51.13;;;4.30;;
60243;SDS011;46106;51.468;5.814;2023-11-19T03:51:54;48.00;;;4.93;;
60243;SDS011;46106;51.468;5.814;2023-11-19T03:54:20;41.17;;;4.07;;
60243;SDS011;46106;51.468;5.814;2023-11-19T03:56:48;46.30;;;4.70;;
60243;SDS011;46106;51.468;5.814;2023-11-19T03:59:13;37.17;;;4.65;;
60243;SDS011;46106;51.468;5.814;2023-11-19T04:01:40;55.03;;;5.45;;
60243;SDS011;46106;51.468;5.814;2023-11-19T04:04:05;61.97;;;5.93;;
60243;SDS011;46106;51.468;5.814;2023-11-19T04:06:31;42.42;;;4.60;;
60243;SDS011;46106;51.468;5.814;2023-11-19T04:08:56;47.80;;;6.20;;
60243;SDS011;46106;51.468;5.814;2023-11-19T04:11:23;41.83;;;3.90;;
60243;SDS011;46106;51.468;5.814;2023-11-19T04:13:50;54.22;;;6.53;;
60243;SDS011;46106;51.468;5.814;2023-11-19T04:16:15;37.20;;;4.65;;
60243;SDS011;46106;51.468;5.814;2023-11-19T04:18:41;44.90;;;4.40;;
60243;SDS011;46106;51.468;5.814;2023-11-19T04:21:08;48.85;;;5.47;;
60243;SDS011;46106;51.468;5.814;2023-11-19T04:23:33;40.00;;;5.53;;
60243;SDS011;46106;51.468;5.814;2023-11-19T04:26:01;53.38;;;6.38;;
60243;SDS011;46106;51.468;5.814;2023-11-19T04:28:29;45.47;;;4.38;;
60243;SDS011;46106;51.468;5.814;2023-11-19T04:30:54;53.63;;;6.28;;
60243;SDS011;46106;51.468;5.814;2023-11-19T04:33:22;40.58;;;3.95;;
60243;SDS011;46106;51.468;5.814;2023-11-19T04:35:50;45.58;;;5.68;;
60243;SDS011;46106;51.468;5.814;2023-11-19T04:38:15;41.22;;;4.88;;
60243;SDS011;46106;51.468;5.814;2023-11-19T04:40:41;51.97;;;6.38;;
60243;SDS011;46106;51.468;5.814;2023-11-19T04:43:07;44.95;;;4.57;;
60243;SDS011;46106;51.468;5.814;2023-11-19T04:45:32;38.88;;;4.38;;
60243;SDS011;46106;51.468;5.814;2023-11-19T04:47:58;40.78;;;5.35;;
60243;SDS011;46106;51.468;5.814;2023-11-19T04:50:25;42.42;;;3.97;;
60243;SDS011;46106;51.468;5.814;2023-11-19T04:52:52;49.85;;;5.03;;
60243;SDS011;46106;51.468;5.814;2023-11-19T04:55:18;51.17;;;5.43;;
60243;SDS011;46106;51.468;5.814;2023-11-19T04:57:46;44.67;;;4.50;;
60243;SDS011;46106;51.468;5.814;2023-11-19T05:00:13;43.72;;;5.05;;
60243;SDS011;46106;51.468;5.814;2023-11-19T05:02:39;49.42;;;5.35;;
60243;SDS011;46106;51.468;5.814;2023-11-19T05:05:05;51.53;;;4.78;;
60243;SDS011;46106;51.468;5.814;2023-11-19T05:07:31;46.38;;;6.03;;
60243;SDS011;46106;51.468;5.814;2023-11-19T05:09:56;46.92;;;5.47;;
60243;SDS011;46106;51.468;5.814;2023-11-19T05:12:22;40.25;;;4.90;;
60243;SDS011;46106;51.468;5.814;2023-11-19T05:14:48;44.90;;;4.85;;
60243;SDS011;46106;51.468;5.814;2023-11-19T05:17:18;30.45;;;3.63;;
60243;SDS011;46106;51.468;5.814;2023-11-19T05:19:44;37.80;;;5.55;;
60243;SDS011;46106;51.468;5.814;2023-11-19T05:22:11;37.70;;;4.55;;
60243;SDS011;46106;51.468;5.814;2023-11-19T05:24:37;47.00;;;5.32;;
60243;SDS011;46106;51.468;5.814;2023-11-19T05:27:05;42.65;;;4.55;;
60243;SDS011;46106;51.468;5.814;2023-11-19T06:39:20;56.28;;;6.82;;
60243;SDS011;46106;51.468;5.814;2023-11-19T06:41:46;37.58;;;4.85;;
60243;SDS011;46106;51.468;5.814;2023-11-19T06:44:13;40.22;;;4.50;;
60243;SDS011;46106;51.468;5.814;2023-11-19T06:46:41;56.42;;;6.15;;
60243;SDS011;46106;51.468;5.814;2023-11-19T06:49:07;51.00;;;4.80;;
60243;SDS011;46106;51.468;5.814;2023-11-19T06:51:35;47.00;;;5.30;;
60243;SDS011;46106;51.468;5.814;2023-11-19T06:54:05;44.83;;;4.45;;
60243;SDS011;46106;51.468;5.814;2023-11-19T06:56:32;44.78;;;4.28;;
60243;SDS011;46106;51.468;5.814;2023-11-19T06:58:57;56.10;;;5.03;;
60243;SDS011;46106;51.468;5.814;2023-11-19T07:01:24;49.22;;;5.78;;
60243;SDS011;46106;51.468;5.814;2023-11-19T07:03:49;49.20;;;4.10;;
60243;SDS011;46106;51.468;5.814;2023-11-19T07:06:16;44.60;;;3.80;;
60243;SDS011;46106;51.468;5.814;2023-11-19T07:08:41;57.45;;;4.80;;
60243;SDS011;46106;51.468;5.814;2023-11-19T07:11:10;48.83;;;5.30;;
60243;SDS011;46106;51.468;5.814;2023-11-19T07:13:37;43.33;;;3.33;;
60243;SDS011;46106;51.468;5.814;2023-11-19T07:16:03;42.33;;;4.22;;
60243;SDS011;46106;51.468;5.814;2023-11-19T07:18:29;54.10;;;4.55;;
60243;SDS011;46106;51.468;5.814;2023-11-19T07:20:54;58.53;;;5.40;;
60243;SDS011;46106;51.468;5.814;2023-11-19T07:23:20;44.53;;;4.75;;
60243;SDS011;46106;51.468;5.814;2023-11-19T07:25:47;52.55;;;6.20;;
60243;SDS011;46106;51.468;5.814;2023-11-19T07:28:13;53.33;;;5.80;;
60243;SDS011;46106;51.468;5.814;2023-11-19T07:30:40;42.22;;;5.78;;
60243;SDS011;46106;51.468;5.814;2023-11-19T07:33:06;43.03;;;4.10;;
60243;SDS011;46106;51.468;5.814;2023-11-19T07:35:32;54.13;;;4.60;;
60243;SDS011;46106;51.468;5.814;2023-11-19T07:37:59;49.33;;;5.05;;
60243;SDS011;46106;51.468;5.814;2023-11-19T07:40:24;42.15;;;4.40;;
60243;SDS011;46106;51.468;5.814;2023-11-19T07:42:53;54.65;;;6.53;;
60243;SDS011;46106;51.468;5.814;2023-11-19T07:45:20;46.38;;;5.35;;
60243;SDS011;46106;51.468;5.814;2023-11-19T07:47:46;43.22;;;5.03;;
60243;SDS011;46106;51.468;5.814;2023-11-19T07:50:15;61.47;;;6.68;;
60243;SDS011;46106;51.468;5.814;2023-11-19T07:52:43;40.85;;;4.00;;
60243;SDS011;46106;51.468;5.814;2023-11-19T07:55:08;58.90;;;5.63;;
60243;SDS011;46106;51.468;5.814;2023-11-19T07:57:33;44.15;;;4.65;;
60243;SDS011;46106;51.468;5.814;2023-11-19T07:59:59;45.55;;;4.53;;
60243;SDS011;46106;51.468;5.814;2023-11-19T08:02:26;40.70;;;4.60;;
60243;SDS011;46106;51.468;5.814;2023-11-19T08:04:51;33.83;;;3.95;;
60243;SDS011;46106;51.468;5.814;2023-11-19T08:07:21;53.13;;;6.32;;
60243;SDS011;46106;51.468;5.814;2023-11-19T08:09:47;50.85;;;5.30;;
60243;SDS011;46106;51.468;5.814;2023-11-19T08:12:13;49.90;;;4.72;;
60243;SDS011;46106;51.468;5.814;2023-11-19T08:14:42;42.53;;;4.50;;
60243;SDS011;46106;51.468;5.814;2023-11-19T08:17:07;47.72;;;6.00;;
60243;SDS011;46106;51.468;5.814;2023-11-19T08:19:33;62.80;;;6.22;;
60243;SDS011;46106;51.468;5.814;2023-11-19T08:21:58;45.35;;;4.90;;
60243;SDS011;46106;51.468;5.814;2023-11-19T08:24:24;41.42;;;5.03;;
60243;SDS011;46106;51.468;5.814;2023-11-19T08:26:49;36.80;;;4.90;;
60243;SDS011;46106;51.468;5.814;2023-11-19T08:29:14;46.65;;;4.38;;
60243;SDS011;46106;51.468;5.814;2023-11-19T08:31:40;37.53;;;4.45;;
60243;SDS011;46106;51.468;5.814;2023-11-19T08:34:05;42.63;;;5.38;;
60243;SDS011;46106;51.468;5.814;2023-11-19T08:36:34;52.65;;;5.88;;
60243;SDS011;46106;51.468;5.814;2023-11-19T08:38:59;40.58;;;5.40;;
60243;SDS011;46106;51.468;5.814;2023-11-19T08:41:25;32.80;;;3.17;;
60243;SDS011;46106;51.468;5.814;2023-11-19T08:43:50;55.65;;;5.43;;
60243;SDS011;46106;51.468;5.814;2023-11-19T08:46:16;41.33;;;4.10;;
60243;SDS011;46106;51.468;5.814;2023-11-19T08:48:42;43.90;;;4.88;;
60243;SDS011;46106;51.468;5.814;2023-11-19T08:51:08;48.70;;;5.47;;
60243;SDS011;46106;51.468;5.814;2023-11-19T08:53:33;51.35;;;5.10;;
60243;SDS011;46106;51.468;5.814;2023-11-19T08:55:59;47.40;;;5.38;;
60243;SDS011;46106;51.468;5.814;2023-11-19T08:58:25;38.05;;;3.90;;
60243;SDS011;46106;51.468;5.814;2023-11-19T09:00:51;51.38;;;4.72;;
60243;SDS011;46106;51.468;5.814;2023-11-19T09:03:16;46.80;;;5.38;;
60243;SDS011;46106;51.468;5.814;2023-11-19T09:05:42;40.40;;;4.55;;
60243;SDS011;46106;51.468;5.814;2023-11-19T09:08:07;44.72;;;4.05;;
60243;SDS011;46106;51.468;5.814;2023-11-19T09:10:33;41.53;;;4.78;;
60243;SDS011;46106;51.468;5.814;2023-11-19T09:12:59;48.15;;;5.53;;
60243;SDS011;46106;51.468;5.814;2023-11-19T09:15:24;36.65;;;4.43;;
60243;SDS011;46106;51.468;5.814;2023-11-19T09:17:50;47.60;;;5.45;;
60243;SDS011;46106;51.468;5.814;2023-11-19T09:20:15;42.42;;;3.90;;
60243;SDS011;46106;51.468;5.814;2023-11-19T09:22:41;56.10;;;4.70;;
60243;SDS011;46106;51.468;5.814;2023-11-19T09:25:07;38.10;;;5.35;;
60243;SDS011;46106;51.468;5.814;2023-11-19T09:27:33;36.08;;;4.45;;
60243;SDS011;46106;51.468;5.814;2023-11-19T09:29:58;40.42;;;4.18;;
60243;SDS011;46106;51.468;5.814;2023-11-19T09:32:24;41.05;;;4.68;;
60243;SDS011;46106;51.468;5.814;2023-11-19T09:34:50;46.08;;;5.15;;
60243;SDS011;46106;51.468;5.814;2023-11-19T09:37:15;39.65;;;5.80;;
60243;SDS011;46106;51.468;5.814;2023-11-19T09:39:41;35.33;;;4.22;;
60243;SDS011;46106;51.468;5.814;2023-11-19T09:42:09;56.97;;;6.65;;
60243;SDS011;46106;51.468;5.814;2023-11-19T09:44:36;35.42;;;4.93;;
60243;SDS011;46106;51.468;5.814;2023-11-19T09:47:04;50.90;;;5.68;;
60243;SDS011;46106;51.468;5.814;2023-11-19T09:49:30;40.58;;;4.10;;
60243;SDS011;46106;51.468;5.814;2023-11-19T09:51:56;57.78;;;5.43;;
60243;SDS011;46106;51.468;5.814;2023-11-19T09:54:22;36.85;;;3.88;;
60243;SDS011;46106;51.468;5.814;2023-11-19T09:56:47;38.95;;;4.28;;
60243;SDS011;46106;51.468;5.814;2023-11-19T09:59:14;45.72;;;4.95;;
60243;SDS011;46106;51.468;5.814;2023-11-19T10:01:39;53.42;;;5.10;;
60243;SDS011;46106;51.468;5.814;2023-11-19T10:04:06;37.08;;;4.22;;
60243;SDS011;46106;51.468;5.814;2023-11-19T10:06:32;50.95;;;4.32;;
60243;SDS011;46106;51.468;5.814;2023-11-19T10:08:57;49.10;;;5.88;;
60243;SDS011;46106;51.468;5.814;2023-11-19T10:11:24;36.33;;;4.22;;
60243;SDS011;46106;51.468;5.814;2023-11-19T10:13:50;50.67;;;4.72;;
60243;SDS011;46106;51.468;5.814;2023-11-19T10:16:17;38.28;;;5.82;;
60243;SDS011;46106;51.468;5.814;2023-11-19T10:18:46;37.28;;;4.32;;
60243;SDS011;46106;51.468;5.814;2023-11-19T10:21:12;43.78;;;5.75;;
60243;SDS011;46106;51.468;5.814;2023-11-19T10:23:48;36.30;;;5.68;;
60243;SDS011;46106;51.468;5.814;2023-11-19T10:26:15;28.77;;;3.75;;
60243;SDS011;46106;51.468;5.814;2023-11-19T10:28:41;33.00;;;4.32;;
60243;SDS011;46106;51.468;5.814;2023-11-19T10:31:11;42.45;;;3.63;;
60243;SDS011;46106;51.468;5.814;2023-11-19T10:33:40;39.70;;;4.60;;
60243;SDS011;46106;51.468;5.814;2023-11-19T10:36:06;39.47;;;4.28;;
60243;SDS011;46106;51.468;5.814;2023-11-19T10:38:32;30.88;;;3.85;;
60243;SDS011;46106;51.468;5.814;2023-11-19T10:40:58;37.08;;;5.40;;
60243;SDS011;46106;51.468;5.814;2023-11-19T10:43:25;30.40;;;4.07;;
60243;SDS011;46106;51.468;5.814;2023-11-19T10:45:53;37.83;;;4.30;;
60243;SDS011;46106;51.468;5.814;2023-11-19T10:48:19;39.40;;;4.35;;
60243;SDS011;46106;51.468;5.814;2023-11-19T10:50:46;34.22;;;4.28;;
60243;SDS011;46106;51.468;5.814;2023-11-19T10:53:14;32.08;;;3.72;;
60243;SDS011;46106;51.468;5.814;2023-11-19T10:55:41;33.88;;;4.55;;
60243;SDS011;46106;51.468;5.814;2023-11-19T10:58:08;27.25;;;4.65;;
60243;SDS011;46106;51.468;5.814;2023-11-19T11:00:45;38.83;;;4.35;;
60243;SDS011;46106;51.468;5.814;2023-11-19T11:03:16;30.52;;;3.88;;
60243;SDS011;46106;51.468;5.814;2023-11-19T11:05:43;32.75;;;3.53;;
60243;SDS011;46106;51.468;5.814;2023-11-19T11:08:13;29.63;;;4.05;;
60243;SDS011;46106;51.468;5.814;2023-11-19T11:10:45;40.28;;;4.95;;
60243;SDS011;46106;51.468;5.814;2023-11-19T11:13:13;42.20;;;3.50;;
60243;SDS011;46106;51.468;5.814;2023-11-19T11:15:39;31.85;;;3.85;;
60243;SDS011;46106;51.468;5.814;2023-11-19T11:18:08;30.55;;;3.65;;
60243;SDS011;46106;51.468;5.814;2023-11-19T11:20:34;33.13;;;3.55;;
60243;SDS011;46106;51.468;5.814;2023-11-19T11:23:11;34.30;;;3.85;;
60243;SDS011;46106;51.468;5.814;2023-11-19T11:28:37;39.15;;;4.22;;
60243;SDS011;46106;51.468;5.814;2023-11-19T11:31:15;44.83;;;4.88;;
60243;SDS011;46106;51.468;5.814;2023-11-19T11:33:48;31.83;;;4.00;;
60243;SDS011;46106;51.468;5.814;2023-11-19T11:36:46;32.25;;;3.65;;
60243;SDS011;46106;51.468;5.814;2023-11-19T11:39:29;42.83;;;4.00;;
60243;SDS011;46106;51.468;5.814;2023-11-19T11:42:38;34.22;;;3.88;;
60243;SDS011;46106;51.468;5.814;2023-11-19T11:45:03;40.25;;;4.75;;
60243;SDS011;46106;51.468;5.814;2023-11-19T11:50:07;28.38;;;3.13;;
60243;SDS011;46106;51.468;5.814;2023-11-19T11:53:12;28.52;;;3.97;;
60243;SDS011;46106;51.468;5.814;2023-11-19T11:58:03;25.98;;;4.25;;
60243;SDS011;46106;51.468;5.814;2023-11-19T12:03:00;26.35;;;3.03;;
60243;SDS011;46106;51.468;5.814;2023-11-19T12:05:27;25.05;;;2.83;;
60243;SDS011;46106;51.468;5.814;2023-11-19T12:08:05;26.63;;;2.53;;
60243;SDS011;46106;51.468;5.814;2023-11-19T12:10:43;22.48;;;2.92;;
60243;SDS011;46106;51.468;5.814;2023-11-19T12:13:13;32.67;;;3.63;;
60243;SDS011;46106;51.468;5.814;2023-11-19T12:18:24;31.35;;;3.63;;
60243;SDS011;46106;51.468;5.814;2023-11-19T12:20:52;20.50;;;3.05;;
60243;SDS011;46106;51.468;5.814;2023-11-19T12:23:21;29.23;;;2.85;;
60243;SDS011;46106;51.468;5.814;2023-11-19T12:25:47;24.77;;;3.25;;
60243;SDS011;46106;51.468;5.814;2023-11-19T12:28:13;24.90;;;3.28;;
60243;SDS011;46106;51.468;5.814;2023-11-19T12:30:53;23.80;;;3.38;;
60243;SDS011;46106;51.468;5.814;2023-11-19T12:33:32;31.35;;;3.25;;
60243;SDS011;46106;51.468;5.814;2023-11-19T13:04:56;25.95;;;3.60;;
60243;SDS011;46106;51.468;5.814;2023-11-19T13:07:21;25.17;;;3.30;;
60243;SDS011;46106;51.468;5.814;2023-11-19T13:09:47;26.20;;;3.50;;
60243;SDS011;46106;51.468;5.814;2023-11-19T13:12:13;31.25;;;3.60;;
60243;SDS011;46106;51.468;5.814;2023-11-19T13:14:41;27.45;;;3.55;;
60243;SDS011;46106;51.468;5.814;2023-11-19T13:17:12;23.17;;;2.55;;
60243;SDS011;46106;51.468;5.814;2023-11-19T13:19:38;22.20;;;2.65;;
60243;SDS011;46106;51.468;5.814;2023-11-19T13:22:03;29.83;;;3.33;;
60243;SDS011;46106;51.468;5.814;2023-11-19T13:24:29;27.42;;;3.15;;
60243;SDS011;46106;51.468;5.814;2023-11-19T13:26:55;26.00;;;3.45;;
60243;SDS011;46106;51.468;5.814;2023-11-19T13:29:21;37.55;;;5.03;;
60243;SDS011;46106;51.468;5.814;2023-11-19T13:31:46;34.25;;;3.55;;
60243;SDS011;46106;51.468;5.814;2023-11-19T13:34:12;25.50;;;3.35;;
60243;SDS011;46106;51.468;5.814;2023-11-19T13:36:37;28.05;;;3.53;;
60243;SDS011;46106;51.468;5.814;2023-11-19T13:39:04;28.65;;;2.90;;
60243;SDS011;46106;51.468;5.814;2023-11-19T13:41:30;29.17;;;4.40;;
60243;SDS011;46106;51.468;5.814;2023-11-19T13:43:55;40.20;;;4.93;;
60243;SDS011;46106;51.468;5.814;2023-11-19T13:46:21;29.70;;;3.70;;
60243;SDS011;46106;51.468;5.814;2023-11-19T13:48:46;31.10;;;3.22;;
60243;SDS011;46106;51.468;5.814;2023-11-19T13:51:14;29.35;;;3.67;;
60243;SDS011;46106;51.468;5.814;2023-11-19T13:53:40;27.83;;;3.10;;
60243;SDS011;46106;51.468;5.814;2023-11-19T13:56:05;30.17;;;3.10;;
60243;SDS011;46106;51.468;5.814;2023-11-19T13:58:32;29.50;;;2.85;;
60243;SDS011;46106;51.468;5.814;2023-11-19T14:00:58;29.60;;;4.65;;
60243;SDS011;46106;51.468;5.814;2023-11-19T14:03:23;30.10;;;3.60;;
60243;SDS011;46106;51.468;5.814;2023-11-19T14:05:49;20.83;;;2.92;;
60243;SDS011;46106;51.468;5.814;2023-11-19T14:08:17;28.17;;;3.45;;
60243;SDS011;46106;51.468;5.814;2023-11-19T14:10:42;27.52;;;4.28;;
60243;SDS011;46106;51.468;5.814;2023-11-19T14:13:08;24.75;;;2.85;;
60243;SDS011;46106;51.468;5.814;2023-11-19T14:15:34;24.85;;;2.85;;
60243;SDS011;46106;51.468;5.814;2023-11-19T14:18:00;22.05;;;3.25;;
60243;SDS011;46106;51.468;5.814;2023-11-19T14:20:26;26.48;;;2.78;;
60243;SDS011;46106;51.468;5.814;2023-11-19T14:22:52;39.97;;;4.20;;
60243;SDS011;46106;51.468;5.814;2023-11-19T14:25:18;33.58;;;4.05;;
60243;SDS011;46106;51.468;5.814;2023-11-19T14:27:44;30.67;;;3.00;;
60243;SDS011;46106;51.468;5.814;2023-11-19T14:30:13;30.90;;;3.00;;
60243;SDS011;46106;51.468;5.814;2023-11-19T14:32:39;29.65;;;3.60;;
60243;SDS011;46106;51.468;5.814;2023-11-19T14:35:08;24.17;;;3.38;;
60243;SDS011;46106;51.468;5.814;2023-11-19T14:37:34;28.45;;;4.25;;
60243;SDS011;46106;51.468;5.814;2023-11-19T14:40:00;27.50;;;2.88;;
60243;SDS011;46106;51.468;5.814;2023-11-19T14:42:28;27.10;;;3.30;;
60243;SDS011;46106;51.468;5.814;2023-11-19T14:44:53;16.58;;;2.50;;
60243;SDS011;46106;51.468;5.814;2023-11-19T14:47:20;34.58;;;3.42;;
60243;SDS011;46106;51.468;5.814;2023-11-19T14:49:46;22.85;;;3.17;;
60243;SDS011;46106;51.468;5.814;2023-11-19T14:52:12;31.63;;;4.05;;
60243;SDS011;46106;51.468;5.814;2023-11-19T14:54:37;36.35;;;3.72;;
60243;SDS011;46106;51.468;5.814;2023-11-19T14:57:03;30.38;;;4.65;;
60243;SDS011;46106;51.468;5.814;2023-11-19T14:59:29;29.30;;;3.72;;
60243;SDS011;46106;51.468;5.814;2023-11-19T15:01:55;33.28;;;4.07;;
60243;SDS011;46106;51.468;5.814;2023-11-19T15:04:20;31.08;;;3.63;;
60243;SDS011;46106;51.468;5.814;2023-11-19T15:06:46;31.17;;;4.18;;
60243;SDS011;46106;51.468;5.814;2023-11-19T15:09:11;30.95;;;3.83;;
60243;SDS011;46106;51.468;5.814;2023-11-19T15:11:42;30.08;;;4.40;;
60243;SDS011;46106;51.468;5.814;2023-11-19T15:14:08;21.80;;;3.92;;
60243;SDS011;46106;51.468;5.814;2023-11-19T15:16:49;23.10;;;2.83;;
60243;SDS011;46106;51.468;5.814;2023-11-19T15:19:16;35.22;;;3.55;;
60243;SDS011;46106;51.468;5.814;2023-11-19T15:21:41;46.13;;;5.38;;
60243;SDS011;46106;51.468;5.814;2023-11-19T15:24:07;39.22;;;5.32;;
60243;SDS011;46106;51.468;5.814;2023-11-19T15:26:34;36.83;;;3.92;;
60243;SDS011;46106;51.468;5.814;2023-11-19T15:29:00;39.13;;;3.55;;
60243;SDS011;46106;51.468;5.814;2023-11-19T15:31:26;39.90;;;3.92;;
60243;SDS011;46106;51.468;5.814;2023-11-19T15:33:54;37.45;;;3.63;;
60243;SDS011;46106;51.468;5.814;2023-11-19T15:36:43;38.85;;;4.28;;
60243;SDS011;46106;51.468;5.814;2023-11-19T15:39:10;40.03;;;4.50;;
60243;SDS011;46106;51.468;5.814;2023-11-19T15:41:38;36.88;;;3.78;;
60243;SDS011;46106;51.468;5.814;2023-11-19T15:44:04;50.75;;;4.97;;
60243;SDS011;46106;51.468;5.814;2023-11-19T15:46:31;44.53;;;5.50;;
60243;SDS011;46106;51.468;5.814;2023-11-19T15:48:57;45.45;;;5.00;;
60243;SDS011;46106;51.468;5.814;2023-11-19T15:51:22;38.10;;;4.45;;
60243;SDS011;46106;51.468;5.814;2023-11-19T15:53:48;35.38;;;4.13;;
60243;SDS011;46106;51.468;5.814;2023-11-19T15:56:13;37.08;;;4.60;;
60243;SDS011;46106;51.468;5.814;2023-11-19T15:58:39;23.90;;;3.03;;
60243;SDS011;46106;51.468;5.814;2023-11-19T16:01:05;30.90;;;3.67;;
60243;SDS011;46106;51.468;5.814;2023-11-19T16:03:37;31.58;;;3.58;;
60243;SDS011;46106;51.468;5.814;2023-11-19T16:06:04;32.60;;;4.72;;
60243;SDS011;46106;51.468;5.814;2023-11-19T16:08:29;32.00;;;3.72;;
60243;SDS011;46106;51.468;5.814;2023-11-19T16:10:55;32.45;;;4.07;;
60243;SDS011;46106;51.468;5.814;2023-11-19T16:13:23;30.98;;;3.38;;
60243;SDS011;46106;51.468;5.814;2023-11-19T16:15:48;26.90;;;3.22;;
60243;SDS011;46106;51.468;5.814;2023-11-19T16:18:14;24.05;;;2.58;;
60243;SDS011;46106;51.468;5.814;2023-11-19T16:20:39;26.40;;;3.40;;
60243;SDS011;46106;51.468;5.814;2023-11-19T16:23:14;19.83;;;2.30;;
60243;SDS011;46106;51.468;5.814;2023-11-19T16:26:03;25.67;;;2.33;;
60243;SDS011;46106;51.468;5.814;2023-11-19T16:28:50;25.80;;;2.83;;